Saturday, October 1, 2016, 6:13 PM EDT

KPTB, Petersburg, Dinwiddie County Airport

Location: Petersburg, VA, United States Lat: 37.183
Local Time: 6:13 PM EDT (22:13 GMT) Lon: -77.517
Time Zone: US/Eastern Elev: 193 ft

Show me the last for .
Show Decoded

2016-10-01 17:35 METAR KPTB 012135Z AUTO 00000KT 10SM CLR 26/08 A3004 RMK AO2 T02590083 =
2016-10-01 17:15 METAR KPTB 012115Z AUTO 18004KT 10SM CLR 26/08 A3004 RMK AO2 T02570083 =
2016-10-01 16:55 METAR KPTB 012055Z AUTO 00000KT 10SM CLR 27/09 A3004 RMK AO2 T02670094 =
2016-10-01 16:35 METAR KPTB 012035Z AUTO 20003KT 10SM CLR 27/11 A3004 RMK AO2 T02670110 =
2016-10-01 16:15 METAR KPTB 012015Z AUTO 00000KT 10SM CLR 26/12 A3004 RMK AO2 T02560117 =
2016-10-01 15:55 METAR KPTB 011955Z AUTO 00000KT 10SM CLR 26/10 A3004 RMK AO2 T02570104 =
2016-10-01 15:35 METAR KPTB 011935Z AUTO 19003KT 10SM SCT044 26/08 A3004 RMK AO2 T02610084 =
2016-10-01 15:15 METAR KPTB 011915Z AUTO 20003KT 10SM SCT038 SCT060 27/09 A3004 RMK AO2 T02670090
                 =
2016-10-01 14:55 METAR KPTB 011855Z AUTO 22003KT 10SM SCT038 SCT060 27/10 A3005 RMK AO2 T02700097
                 =
2016-10-01 14:35 METAR KPTB 011835Z AUTO 23003KT 10SM SCT033 SCT041 SCT060 27/10 A3005 RMK AO2
                 T02730096 =
2016-10-01 14:15 METAR KPTB 011815Z AUTO 00000KT 10SM -RA SCT034 SCT043 27/10 A3006 RMK AO2
                 T02650103 =
2016-10-01 13:55 METAR KPTB 011755Z AUTO 23004KT 10SM -RA SCT036 27/10 A3006 RMK AO2 T02670099 =
2016-10-01 13:35 METAR KPTB 011735Z AUTO 00000KT 10SM -RA CLR 27/11 A3006 RMK AO2 T02650109 =
2016-10-01 13:15 METAR KPTB 011715Z AUTO 19003KT 10SM -RA SCT022 SCT028 26/13 A3006 RMK AO2
                 T02610132 =
2016-10-01 12:55 METAR KPTB 011655Z AUTO 00000KT 10SM -RA SCT020 SCT025 26/14 A3006 RMK AO2
                 T02590138 =
2016-10-01 12:35 METAR KPTB 011635Z AUTO 00000KT 10SM -RA BKN018 BKN025 26/14 A3007 RMK AO2
                 T02560141 =
2016-10-01 12:15 METAR KPTB 011615Z AUTO 00000KT 10SM -RA SCT014 SCT020 BKN025 25/16 A3007 RMK
                 AO2 T02510156 =
2016-10-01 11:55 METAR KPTB 011555Z AUTO 28003KT 10SM -RA SCT012 25/16 A3008 RMK AO2 T02480163 =
2016-10-01 11:35 METAR KPTB 011535Z AUTO 23003KT 10SM -RA SCT012 25/17 A3008 RMK AO2 T02460170 =
2016-10-01 11:15 METAR KPTB 011515Z AUTO 27004KT 10SM -RA BKN009 BKN015 BKN027 24/17 A3008 RMK
                 AO2 T02440172 =
2016-10-01 10:55 METAR KPTB 011455Z AUTO 30004KT 10SM -RA SCT009 SCT017 BKN027 24/19 A3008 RMK
                 AO2 T02420189 =
2016-10-01 10:35 METAR KPTB 011435Z AUTO 27005KT 10SM -RA SCT009 BKN029 OVC065 24/20 A3008 RMK
                 AO2 T02410198 =
2016-10-01 10:15 METAR KPTB 011415Z AUTO 00000KT 10SM -RA SCT020 BKN065 24/19 A3008 RMK AO2
                 T02410191 =
2016-10-01 09:55 METAR KPTB 011355Z AUTO 00000KT 10SM -RA SCT005 BKN020 OVC065 24/23 A3008 RMK
                 AO2 T02380230 =
2016-10-01 09:35 METAR KPTB 011335Z AUTO 00000KT 10SM -RA BKN005 OVC020 A3007 RMK AO2 =
2016-10-01 09:15 METAR KPTB 011315Z AUTO 00000KT 10SM -RA BKN005 BKN070 A3007 RMK AO2 =
2016-10-01 08:55 METAR KPTB 011255Z AUTO 00000KT 10SM -RA SCT003 BKN021 BKN070 A3007 RMK AO2 =
2016-10-01 08:35 METAR KPTB 011235Z AUTO 00000KT 7SM -RA SCT008 SCT013 OVC021 A3007 RMK AO2 =
2016-10-01 08:15 METAR KPTB 011215Z AUTO 00000KT 4SM -RA BKN008 BKN013 OVC019 A3007 RMK AO2 =
2016-10-01 07:55 METAR KPTB 011155Z AUTO 00000KT 2SM -RA OVC004 A3007 RMK AO2 VIS 1 1/2V4 P0001
                 60002 70053 =
2016-10-01 07:35 METAR KPTB 011135Z AUTO 25003KT 1 3/4SM -RA OVC002 A3006 RMK AO2 P0001 =
2016-10-01 07:15 METAR KPTB 011115Z AUTO 00000KT 1 3/4SM -RA OVC002 A3006 RMK AO2 LTG DSNT SE
                 P0001 =
2016-10-01 06:55 METAR KPTB 011055Z AUTO 00000KT 2 1/2SM -RA OVC002 A3006 RMK AO2 P0001 =
2016-10-01 06:35 METAR KPTB 011035Z AUTO 00000KT 1 3/4SM -RA OVC002 A3006 RMK AO2 P0001 =
2016-10-01 06:15 METAR KPTB 011015Z AUTO 00000KT 1 3/4SM -RA OVC002 A3006 RMK AO2 =
2016-10-01 05:55 METAR KPTB 010955Z AUTO 00000KT 1 3/4SM -RA OVC002 A3005 RMK AO2 =
2016-10-01 05:35 METAR KPTB 010935Z AUTO 00000KT 1 1/2SM -RA OVC002 A3004 RMK AO2 =
2016-10-01 05:15 METAR KPTB 010915Z AUTO 00000KT 1 1/4SM BR OVC004 A3003 RMK AO2 =
2016-10-01 04:55 METAR KPTB 010855Z AUTO 14003KT 3SM BR OVC004 A3003 RMK AO2 =
2016-10-01 04:35 METAR KPTB 010835Z AUTO 00000KT 5SM HZ OVC004 A3003 RMK AO2 =
2016-10-01 04:15 METAR KPTB 010815Z AUTO 16003KT 7SM OVC004 A3003 RMK AO2 =
2016-10-01 03:55 METAR KPTB 010755Z AUTO 00000KT 7SM OVC006 A3004 RMK AO2 LTG DSNT S =
2016-10-01 03:35 METAR KPTB 010735Z AUTO 00000KT 7SM OVC006 A3004 RMK AO2 =
2016-10-01 03:15 METAR KPTB 010715Z AUTO 00000KT 10SM OVC006 A3004 RMK AO2 LTG DSNT S =
2016-10-01 02:55 METAR KPTB 010655Z AUTO 00000KT 10SM OVC008 A3004 RMK AO2 =
2016-10-01 02:35 METAR KPTB 010635Z AUTO 00000KT 10SM OVC010 A3004 RMK AO2 =
2016-10-01 02:15 METAR KPTB 010615Z AUTO 00000KT 10SM BKN010 OVC015 A3005 RMK AO2 =
2016-10-01 01:55 METAR KPTB 010555Z AUTO 00000KT 10SM OVC008 A3005 RMK AO2 =
2016-10-01 01:35 METAR KPTB 010535Z AUTO 00000KT 10SM BKN007 OVC013 A3005 RMK AO2 =
2016-10-01 01:15 METAR KPTB 010515Z AUTO 12003KT 10SM OVC007 A3005 RMK AO2 =
2016-10-01 00:55 METAR KPTB 010455Z AUTO 11004KT 10SM OVC007 A3005 RMK AO2 =
2016-10-01 00:35 METAR KPTB 010435Z AUTO 00000KT 10SM OVC007 A3006 RMK AO2 =
2016-10-01 00:15 METAR KPTB 010415Z AUTO 00000KT 7SM BKN007 OVC028 A3006 RMK AO2 =
2016-09-30 23:55 METAR KPTB 010355Z AUTO 11003KT 7SM SCT007 SCT012 OVC030 A3005 RMK AO2 =
2016-09-30 23:35 METAR KPTB 010335Z AUTO 00000KT 7SM SCT008 BKN014 OVC030 A3005 RMK AO2 =
2016-09-30 23:15 METAR KPTB 010315Z AUTO 11003KT 7SM BKN014 BKN020 A3005 RMK AO2 =
2016-09-30 22:55 METAR KPTB 010255Z AUTO 00000KT 7SM SCT006 SCT009 BKN020 A3005 RMK AO2 =
2016-09-30 22:35 METAR KPTB 010235Z AUTO 11003KT 10SM BKN004 OVC010 A3005 RMK AO2 =
2016-09-30 22:15 METAR KPTB 010215Z AUTO 10003KT 7SM OVC004 A3005 RMK AO2 =
2016-09-30 21:55 METAR KPTB 010155Z AUTO 08004KT 10SM OVC004 A3005 RMK AO2 =
2016-09-30 21:35 METAR KPTB 010135Z AUTO 00000KT 10SM OVC004 A3005 RMK AO2 =
2016-09-30 21:15 METAR KPTB 010115Z AUTO 06003KT 10SM BKN006 OVC009 A3004 RMK AO2 =
2016-09-30 20:55 METAR KPTB 010055Z AUTO 04003KT 7SM SCT004 OVC010 A3005 RMK AO2 =
2016-09-30 20:35 METAR KPTB 010035Z AUTO 06003KT 7SM BKN004 OVC010 A3005 RMK AO2 =
2016-09-30 20:15 METAR KPTB 010015Z AUTO 05003KT 10SM BKN006 OVC017 A3004 RMK AO2 =
2016-09-30 19:55 METAR KPTB 302355Z AUTO 04004KT 10SM OVC017 A3003 RMK AO2 60050 =
2016-09-30 19:35 METAR KPTB 302335Z AUTO 05004KT 10SM BKN019 OVC027 A3004 RMK AO2 =
2016-09-30 19:15 METAR KPTB 302315Z AUTO 04005KT 10SM SCT006 BKN019 OVC027 A3004 RMK AO2 =
2016-09-30 18:55 METAR KPTB 302255Z AUTO 05004KT 10SM SCT006 OVC025 A3005 RMK AO2 =
2016-09-30 18:35 METAR KPTB 302235Z AUTO 03006KT 10SM SCT006 BKN025 OVC065 A3003 RMK AO2 =
2016-09-30 18:15 METAR KPTB 302215Z AUTO 04003KT 10SM SCT004 BKN023 BKN028 A3003 RMK AO2 LTG DSNT
                 N AND NE =

Support USWX by starting your Amazon purchase here.